sensor_id;sensor_type;location;lat;lon;timestamp;temperature;humidity
42755;DHT22;28407;51.830;5.684;2023-03-16T00:01:29;7.20;64.10
42755;DHT22;28407;51.830;5.684;2023-03-16T00:03:29;7.20;64.10
42755;DHT22;28407;51.830;5.684;2023-03-16T00:05:30;7.20;64.20
42755;DHT22;28407;51.830;5.684;2023-03-16T00:07:31;7.20;64.30
42755;DHT22;28407;51.830;5.684;2023-03-16T00:09:32;7.20;64.30
42755;DHT22;28407;51.830;5.684;2023-03-16T00:11:33;7.20;64.30
42755;DHT22;28407;51.830;5.684;2023-03-16T00:13:33;7.20;64.40
42755;DHT22;28407;51.830;5.684;2023-03-16T00:15:34;7.10;64.40
42755;DHT22;28407;51.830;5.684;2023-03-16T00:17:35;7.20;64.60
42755;DHT22;28407;51.830;5.684;2023-03-16T00:19:35;7.20;64.60
42755;DHT22;28407;51.830;5.684;2023-03-16T00:21:36;7.20;64.60
42755;DHT22;28407;51.830;5.684;2023-03-16T00:23:36;7.20;64.60
42755;DHT22;28407;51.830;5.684;2023-03-16T00:25:37;7.20;64.70
42755;DHT22;28407;51.830;5.684;2023-03-16T00:27:38;7.20;64.70
42755;DHT22;28407;51.830;5.684;2023-03-16T00:29:45;7.20;64.60
42755;DHT22;28407;51.830;5.684;2023-03-16T00:31:46;7.20;64.70
42755;DHT22;28407;51.830;5.684;2023-03-16T00:33:46;7.20;64.80
42755;DHT22;28407;51.830;5.684;2023-03-16T00:35:47;7.20;64.80
42755;DHT22;28407;51.830;5.684;2023-03-16T00:38:01;7.20;64.90
42755;DHT22;28407;51.830;5.684;2023-03-16T00:40:02;7.20;64.90
42755;DHT22;28407;51.830;5.684;2023-03-16T00:42:03;7.20;65.60
42755;DHT22;28407;51.830;5.684;2023-03-16T00:44:04;7.20;65.00
42755;DHT22;28407;51.830;5.684;2023-03-16T00:46:13;7.20;65.10
42755;DHT22;28407;51.830;5.684;2023-03-16T00:48:13;7.20;65.20
42755;DHT22;28407;51.830;5.684;2023-03-16T00:50:14;7.10;65.20
42755;DHT22;28407;51.830;5.684;2023-03-16T00:52:15;7.10;65.30
42755;DHT22;28407;51.830;5.684;2023-03-16T00:54:16;7.10;65.30
42755;DHT22;28407;51.830;5.684;2023-03-16T00:56:17;7.10;66.10
42755;DHT22;28407;51.830;5.684;2023-03-16T00:58:18;7.10;65.50
42755;DHT22;28407;51.830;5.684;2023-03-16T01:00:20;7.10;65.50
42755;DHT22;28407;51.830;5.684;2023-03-16T01:02:21;7.10;65.60
42755;DHT22;28407;51.830;5.684;2023-03-16T01:04:24;7.00;65.60
42755;DHT22;28407;51.830;5.684;2023-03-16T01:06:26;7.00;65.70
42755;DHT22;28407;51.830;5.684;2023-03-16T01:08:27;7.00;66.10
42755;DHT22;28407;51.830;5.684;2023-03-16T01:10:27;7.00;65.80
42755;DHT22;28407;51.830;5.684;2023-03-16T01:12:28;7.00;65.90
42755;DHT22;28407;51.830;5.684;2023-03-16T01:14:29;7.00;65.90
42755;DHT22;28407;51.830;5.684;2023-03-16T01:16:30;7.00;66.10
42755;DHT22;28407;51.830;5.684;2023-03-16T01:18:33;7.00;66.10
42755;DHT22;28407;51.830;5.684;2023-03-16T01:20:34;7.00;66.20
42755;DHT22;28407;51.830;5.684;2023-03-16T01:22:34;7.00;66.20
42755;DHT22;28407;51.830;5.684;2023-03-16T01:24:36;7.00;66.20
42755;DHT22;28407;51.830;5.684;2023-03-16T01:26:38;7.00;66.30
42755;DHT22;28407;51.830;5.684;2023-03-16T01:28:38;7.00;66.40
42755;DHT22;28407;51.830;5.684;2023-03-16T01:30:39;7.00;66.50
42755;DHT22;28407;51.830;5.684;2023-03-16T01:32:43;7.00;66.50
42755;DHT22;28407;51.830;5.684;2023-03-16T01:34:46;7.00;66.50
42755;DHT22;28407;51.830;5.684;2023-03-16T01:36:48;7.00;66.60
42755;DHT22;28407;51.830;5.684;2023-03-16T01:38:56;7.00;66.60
42755;DHT22;28407;51.830;5.684;2023-03-16T01:41:00;7.00;66.70
42755;DHT22;28407;51.830;5.684;2023-03-16T01:43:03;7.00;66.70
42755;DHT22;28407;51.830;5.684;2023-03-16T01:47:46;7.10;66.70
42755;DHT22;28407;51.830;5.684;2023-03-16T01:49:51;7.10;66.70
42755;DHT22;28407;51.830;5.684;2023-03-16T01:52:01;7.10;66.70
42755;DHT22;28407;51.830;5.684;2023-03-16T01:54:32;7.10;66.70
42755;DHT22;28407;51.830;5.684;2023-03-16T01:56:41;7.10;66.80
42755;DHT22;28407;51.830;5.684;2023-03-16T01:58:43;7.10;66.70
42755;DHT22;28407;51.830;5.684;2023-03-16T02:00:44;7.10;66.70
42755;DHT22;28407;51.830;5.684;2023-03-16T02:02:59;7.10;66.70
42755;DHT22;28407;51.830;5.684;2023-03-16T02:05:18;7.10;66.80
42755;DHT22;28407;51.830;5.684;2023-03-16T02:07:21;7.10;66.90
42755;DHT22;28407;51.830;5.684;2023-03-16T02:09:25;7.10;67.00
42755;DHT22;28407;51.830;5.684;2023-03-16T02:11:26;7.10;67.00
42755;DHT22;28407;51.830;5.684;2023-03-16T02:13:34;7.10;67.10
42755;DHT22;28407;51.830;5.684;2023-03-16T02:15:37;7.00;67.10
42755;DHT22;28407;51.830;5.684;2023-03-16T02:17:40;7.00;67.30
42755;DHT22;28407;51.830;5.684;2023-03-16T02:20:15;7.00;67.30
42755;DHT22;28407;51.830;5.684;2023-03-16T02:22:13;7.00;67.40
42755;DHT22;28407;51.830;5.684;2023-03-16T02:24:14;7.00;67.40
42755;DHT22;28407;51.830;5.684;2023-03-16T02:26:24;7.00;67.50
42755;DHT22;28407;51.830;5.684;2023-03-16T02:30:48;7.00;67.60
42755;DHT22;28407;51.830;5.684;2023-03-16T02:32:51;7.00;67.50
42755;DHT22;28407;51.830;5.684;2023-03-16T02:34:54;7.00;67.60
42755;DHT22;28407;51.830;5.684;2023-03-16T02:36:56;6.90;67.60
42755;DHT22;28407;51.830;5.684;2023-03-16T02:38:59;7.00;67.70
42755;DHT22;28407;51.830;5.684;2023-03-16T02:41:11;7.00;67.70
42755;DHT22;28407;51.830;5.684;2023-03-16T02:43:18;6.90;67.80
42755;DHT22;28407;51.830;5.684;2023-03-16T02:45:53;6.90;67.80
42755;DHT22;28407;51.830;5.684;2023-03-16T02:47:56;6.90;67.80
42755;DHT22;28407;51.830;5.684;2023-03-16T02:49:57;6.90;67.80
42755;DHT22;28407;51.830;5.684;2023-03-16T02:51:58;6.90;67.80
42755;DHT22;28407;51.830;5.684;2023-03-16T02:53:59;6.90;67.90
42755;DHT22;28407;51.830;5.684;2023-03-16T02:56:01;6.90;68.00
42755;DHT22;28407;51.830;5.684;2023-03-16T02:58:04;6.90;68.10
42755;DHT22;28407;51.830;5.684;2023-03-16T03:00:05;6.80;68.00
42755;DHT22;28407;51.830;5.684;2023-03-16T03:02:12;6.90;68.10
42755;DHT22;28407;51.830;5.684;2023-03-16T03:04:13;6.80;68.00
42755;DHT22;28407;51.830;5.684;2023-03-16T03:06:13;6.90;68.10
42755;DHT22;28407;51.830;5.684;2023-03-16T03:08:15;6.90;68.10
42755;DHT22;28407;51.830;5.684;2023-03-16T03:10:16;6.90;68.20
42755;DHT22;28407;51.830;5.684;2023-03-16T03:12:16;6.90;68.20
42755;DHT22;28407;51.830;5.684;2023-03-16T03:14:17;6.90;68.20
42755;DHT22;28407;51.830;5.684;2023-03-16T03:16:21;6.90;68.20
42755;DHT22;28407;51.830;5.684;2023-03-16T03:18:22;6.90;68.20
42755;DHT22;28407;51.830;5.684;2023-03-16T03:20:25;6.90;68.20
42755;DHT22;28407;51.830;5.684;2023-03-16T03:22:27;6.90;68.20
42755;DHT22;28407;51.830;5.684;2023-03-16T03:24:28;6.90;68.20
42755;DHT22;28407;51.830;5.684;2023-03-16T03:26:29;6.90;68.30
42755;DHT22;28407;51.830;5.684;2023-03-16T03:28:33;6.90;68.40
42755;DHT22;28407;51.830;5.684;2023-03-16T03:30:34;6.90;68.40
42755;DHT22;28407;51.830;5.684;2023-03-16T03:32:38;6.90;68.50
42755;DHT22;28407;51.830;5.684;2023-03-16T03:34:39;6.90;68.50
42755;DHT22;28407;51.830;5.684;2023-03-16T03:36:41;6.90;68.60
42755;DHT22;28407;51.830;5.684;2023-03-16T03:38:42;6.90;68.60
42755;DHT22;28407;51.830;5.684;2023-03-16T03:40:43;6.90;68.70
42755;DHT22;28407;51.830;5.684;2023-03-16T03:42:46;6.90;68.80
42755;DHT22;28407;51.830;5.684;2023-03-16T03:44:46;6.90;68.90
42755;DHT22;28407;51.830;5.684;2023-03-16T03:46:48;6.80;69.00
42755;DHT22;28407;51.830;5.684;2023-03-16T03:48:48;6.80;69.10
42755;DHT22;28407;51.830;5.684;2023-03-16T03:50:50;6.80;69.30
42755;DHT22;28407;51.830;5.684;2023-03-16T03:53:10;6.80;69.40
42755;DHT22;28407;51.830;5.684;2023-03-16T03:55:31;6.80;69.50
42755;DHT22;28407;51.830;5.684;2023-03-16T03:57:31;6.80;69.50
42755;DHT22;28407;51.830;5.684;2023-03-16T03:59:32;6.70;69.60
42755;DHT22;28407;51.830;5.684;2023-03-16T04:01:34;6.70;69.70
42755;DHT22;28407;51.830;5.684;2023-03-16T04:03:35;6.70;69.80
42755;DHT22;28407;51.830;5.684;2023-03-16T04:05:35;6.70;69.90
42755;DHT22;28407;51.830;5.684;2023-03-16T04:07:36;6.70;70.00
42755;DHT22;28407;51.830;5.684;2023-03-16T04:09:40;6.70;70.20
42755;DHT22;28407;51.830;5.684;2023-03-16T04:11:44;6.70;70.40
42755;DHT22;28407;51.830;5.684;2023-03-16T04:13:45;6.70;70.40
42755;DHT22;28407;51.830;5.684;2023-03-16T04:15:46;6.60;70.40
42755;DHT22;28407;51.830;5.684;2023-03-16T04:17:52;6.60;70.50
42755;DHT22;28407;51.830;5.684;2023-03-16T04:19:52;6.60;70.50
42755;DHT22;28407;51.830;5.684;2023-03-16T04:21:53;6.60;70.60
42755;DHT22;28407;51.830;5.684;2023-03-16T04:23:53;6.60;70.70
42755;DHT22;28407;51.830;5.684;2023-03-16T04:25:57;6.60;70.70
42755;DHT22;28407;51.830;5.684;2023-03-16T04:27:58;6.60;70.70
42755;DHT22;28407;51.830;5.684;2023-03-16T04:30:08;6.60;70.80
42755;DHT22;28407;51.830;5.684;2023-03-16T04:32:11;6.60;70.90
42755;DHT22;28407;51.830;5.684;2023-03-16T04:34:13;6.60;70.90
42755;DHT22;28407;51.830;5.684;2023-03-16T04:36:14;6.60;70.90
42755;DHT22;28407;51.830;5.684;2023-03-16T04:38:15;6.60;70.90
42755;DHT22;28407;51.830;5.684;2023-03-16T04:40:25;6.60;70.90
42755;DHT22;28407;51.830;5.684;2023-03-16T04:42:35;6.60;70.90
42755;DHT22;28407;51.830;5.684;2023-03-16T04:44:35;6.60;70.90
42755;DHT22;28407;51.830;5.684;2023-03-16T04:46:43;6.60;70.90
42755;DHT22;28407;51.830;5.684;2023-03-16T04:48:45;6.60;71.00
42755;DHT22;28407;51.830;5.684;2023-03-16T04:50:47;6.60;71.00
42755;DHT22;28407;51.830;5.684;2023-03-16T04:52:49;6.60;71.10
42755;DHT22;28407;51.830;5.684;2023-03-16T04:54:50;6.60;71.00
42755;DHT22;28407;51.830;5.684;2023-03-16T04:56:51;6.60;71.00
42755;DHT22;28407;51.830;5.684;2023-03-16T04:59:04;6.60;71.10
42755;DHT22;28407;51.830;5.684;2023-03-16T05:01:16;6.60;71.10
42755;DHT22;28407;51.830;5.684;2023-03-16T05:03:18;6.60;71.10
42755;DHT22;28407;51.830;5.684;2023-03-16T05:05:19;6.60;71.20
42755;DHT22;28407;51.830;5.684;2023-03-16T05:07:21;6.60;71.20
42755;DHT22;28407;51.830;5.684;2023-03-16T05:09:26;6.60;71.10
42755;DHT22;28407;51.830;5.684;2023-03-16T05:11:27;6.60;71.20
42755;DHT22;28407;51.830;5.684;2023-03-16T05:13:32;6.60;71.20
42755;DHT22;28407;51.830;5.684;2023-03-16T05:15:33;6.60;71.20
42755;DHT22;28407;51.830;5.684;2023-03-16T05:17:43;6.60;71.20
42755;DHT22;28407;51.830;5.684;2023-03-16T05:19:46;6.60;71.20
42755;DHT22;28407;51.830;5.684;2023-03-16T05:21:48;6.60;71.10
42755;DHT22;28407;51.830;5.684;2023-03-16T05:23:49;6.60;71.20
42755;DHT22;28407;51.830;5.684;2023-03-16T05:25:51;6.60;71.20
42755;DHT22;28407;51.830;5.684;2023-03-16T05:27:54;6.60;71.30
42755;DHT22;28407;51.830;5.684;2023-03-16T05:30:10;6.60;71.30
42755;DHT22;28407;51.830;5.684;2023-03-16T05:32:12;6.60;71.20
42755;DHT22;28407;51.830;5.684;2023-03-16T05:34:15;6.70;71.20
42755;DHT22;28407;51.830;5.684;2023-03-16T05:36:15;6.70;71.20
42755;DHT22;28407;51.830;5.684;2023-03-16T05:38:19;6.70;71.20
42755;DHT22;28407;51.830;5.684;2023-03-16T05:40:19;6.70;71.20
42755;DHT22;28407;51.830;5.684;2023-03-16T05:42:31;6.70;71.30
42755;DHT22;28407;51.830;5.684;2023-03-16T05:44:35;6.70;71.30
42755;DHT22;28407;51.830;5.684;2023-03-16T05:46:42;6.70;71.30
42755;DHT22;28407;51.830;5.684;2023-03-16T05:48:45;6.70;71.20
42755;DHT22;28407;51.830;5.684;2023-03-16T05:50:49;6.70;71.20
42755;DHT22;28407;51.830;5.684;2023-03-16T05:52:52;6.70;71.30
42755;DHT22;28407;51.830;5.684;2023-03-16T05:54:56;6.70;71.90
42755;DHT22;28407;51.830;5.684;2023-03-16T05:56:57;6.70;71.30
42755;DHT22;28407;51.830;5.684;2023-03-16T05:58:59;6.70;71.30
42755;DHT22;28407;51.830;5.684;2023-03-16T06:01:00;6.70;71.30
42755;DHT22;28407;51.830;5.684;2023-03-16T06:03:04;6.70;71.40
42755;DHT22;28407;51.830;5.684;2023-03-16T06:05:08;6.70;71.50
42755;DHT22;28407;51.830;5.684;2023-03-16T06:07:12;6.70;71.40
42755;DHT22;28407;51.830;5.684;2023-03-16T06:09:13;6.70;71.50
42755;DHT22;28407;51.830;5.684;2023-03-16T06:11:15;6.80;71.60
42755;DHT22;28407;51.830;5.684;2023-03-16T06:13:16;6.70;71.50
42755;DHT22;28407;51.830;5.684;2023-03-16T06:15:17;6.80;71.50
42755;DHT22;28407;51.830;5.684;2023-03-16T06:17:19;6.70;71.50
42755;DHT22;28407;51.830;5.684;2023-03-16T06:19:20;6.80;71.60
42755;DHT22;28407;51.830;5.684;2023-03-16T06:21:25;6.80;71.60
42755;DHT22;28407;51.830;5.684;2023-03-16T06:23:28;6.80;71.60
42755;DHT22;28407;51.830;5.684;2023-03-16T06:25:30;6.70;71.70
42755;DHT22;28407;51.830;5.684;2023-03-16T06:27:31;6.80;71.80
42755;DHT22;28407;51.830;5.684;2023-03-16T06:29:41;6.70;71.80
42755;DHT22;28407;51.830;5.684;2023-03-16T06:31:42;6.70;71.90
42755;DHT22;28407;51.830;5.684;2023-03-16T06:33:44;6.70;72.00
42755;DHT22;28407;51.830;5.684;2023-03-16T06:35:45;6.70;72.00
42755;DHT22;28407;51.830;5.684;2023-03-16T06:37:52;6.70;72.10
42755;DHT22;28407;51.830;5.684;2023-03-16T06:40:08;6.70;72.10
42755;DHT22;28407;51.830;5.684;2023-03-16T06:42:09;6.70;72.10
42755;DHT22;28407;51.830;5.684;2023-03-16T06:44:11;6.70;72.10
42755;DHT22;28407;51.830;5.684;2023-03-16T06:46:19;6.70;72.10
42755;DHT22;28407;51.830;5.684;2023-03-16T06:48:20;6.70;72.30
42755;DHT22;28407;51.830;5.684;2023-03-16T06:50:22;6.80;72.40
42755;DHT22;28407;51.830;5.684;2023-03-16T06:52:22;6.80;72.40
42755;DHT22;28407;51.830;5.684;2023-03-16T06:54:23;6.80;72.50
42755;DHT22;28407;51.830;5.684;2023-03-16T06:56:24;6.80;72.50
42755;DHT22;28407;51.830;5.684;2023-03-16T06:58:27;6.80;72.50
42755;DHT22;28407;51.830;5.684;2023-03-16T07:00:28;6.80;72.50
42755;DHT22;28407;51.830;5.684;2023-03-16T07:02:30;6.80;72.60
42755;DHT22;28407;51.830;5.684;2023-03-16T07:04:32;6.80;72.60
42755;DHT22;28407;51.830;5.684;2023-03-16T07:06:33;6.80;72.70
42755;DHT22;28407;51.830;5.684;2023-03-16T07:08:34;6.80;72.80
42755;DHT22;28407;51.830;5.684;2023-03-16T07:10:35;6.80;72.80
42755;DHT22;28407;51.830;5.684;2023-03-16T07:12:36;6.80;72.80
42755;DHT22;28407;51.830;5.684;2023-03-16T07:14:37;6.80;72.80
42755;DHT22;28407;51.830;5.684;2023-03-16T07:16:38;6.80;72.90
42755;DHT22;28407;51.830;5.684;2023-03-16T07:18:40;6.80;73.00
42755;DHT22;28407;51.830;5.684;2023-03-16T07:20:45;6.80;73.00
42755;DHT22;28407;51.830;5.684;2023-03-16T07:22:46;6.90;73.10
42755;DHT22;28407;51.830;5.684;2023-03-16T07:24:47;6.90;73.10
42755;DHT22;28407;51.830;5.684;2023-03-16T07:26:55;6.90;73.10
42755;DHT22;28407;51.830;5.684;2023-03-16T07:29:03;6.90;73.20
42755;DHT22;28407;51.830;5.684;2023-03-16T07:31:06;6.90;73.20
42755;DHT22;28407;51.830;5.684;2023-03-16T07:33:12;6.90;73.20
42755;DHT22;28407;51.830;5.684;2023-03-16T07:35:13;6.90;73.20
42755;DHT22;28407;51.830;5.684;2023-03-16T07:37:14;7.00;73.20
42755;DHT22;28407;51.830;5.684;2023-03-16T07:39:17;7.00;73.20
42755;DHT22;28407;51.830;5.684;2023-03-16T07:41:18;7.00;73.20
42755;DHT22;28407;51.830;5.684;2023-03-16T07:43:19;7.00;73.30
42755;DHT22;28407;51.830;5.684;2023-03-16T07:45:23;7.00;73.30
42755;DHT22;28407;51.830;5.684;2023-03-16T07:47:24;7.00;73.30
42755;DHT22;28407;51.830;5.684;2023-03-16T07:49:27;7.00;73.30
42755;DHT22;28407;51.830;5.684;2023-03-16T07:51:29;7.00;73.30
42755;DHT22;28407;51.830;5.684;2023-03-16T07:53:31;7.00;73.40
42755;DHT22;28407;51.830;5.684;2023-03-16T07:55:48;7.00;74.00
42755;DHT22;28407;51.830;5.684;2023-03-16T07:57:49;7.10;74.10
42755;DHT22;28407;51.830;5.684;2023-03-16T07:59:54;7.10;73.40
42755;DHT22;28407;51.830;5.684;2023-03-16T08:01:55;7.10;73.40
42755;DHT22;28407;51.830;5.684;2023-03-16T08:03:56;7.10;73.40
42755;DHT22;28407;51.830;5.684;2023-03-16T08:05:56;7.10;73.50
42755;DHT22;28407;51.830;5.684;2023-03-16T08:07:57;7.10;73.50
42755;DHT22;28407;51.830;5.684;2023-03-16T08:10:00;7.10;73.60
42755;DHT22;28407;51.830;5.684;2023-03-16T08:12:08;7.10;73.60
42755;DHT22;28407;51.830;5.684;2023-03-16T08:14:09;7.10;73.70
42755;DHT22;28407;51.830;5.684;2023-03-16T08:16:32;7.20;73.80
42755;DHT22;28407;51.830;5.684;2023-03-16T08:18:33;7.10;73.80
42755;DHT22;28407;51.830;5.684;2023-03-16T08:20:34;7.20;73.80
42755;DHT22;28407;51.830;5.684;2023-03-16T08:22:35;7.20;73.90
42755;DHT22;28407;51.830;5.684;2023-03-16T08:24:36;7.20;73.90
42755;DHT22;28407;51.830;5.684;2023-03-16T08:26:39;7.20;74.00
42755;DHT22;28407;51.830;5.684;2023-03-16T08:28:39;7.20;74.00
42755;DHT22;28407;51.830;5.684;2023-03-16T08:30:45;7.20;74.10
42755;DHT22;28407;51.830;5.684;2023-03-16T08:33:04;7.20;74.20
42755;DHT22;28407;51.830;5.684;2023-03-16T08:35:11;7.20;74.30
42755;DHT22;28407;51.830;5.684;2023-03-16T08:37:16;7.30;74.50
42755;DHT22;28407;51.830;5.684;2023-03-16T08:39:18;7.30;74.50
42755;DHT22;28407;51.830;5.684;2023-03-16T08:41:21;7.30;74.60
42755;DHT22;28407;51.830;5.684;2023-03-16T08:43:23;7.30;74.70
42755;DHT22;28407;51.830;5.684;2023-03-16T08:45:26;7.30;74.70
42755;DHT22;28407;51.830;5.684;2023-03-16T08:47:26;7.30;74.60
42755;DHT22;28407;51.830;5.684;2023-03-16T08:49:28;7.40;74.70
42755;DHT22;28407;51.830;5.684;2023-03-16T08:51:38;7.40;74.70
42755;DHT22;28407;51.830;5.684;2023-03-16T08:53:38;7.40;74.70
42755;DHT22;28407;51.830;5.684;2023-03-16T08:55:40;7.40;74.70
42755;DHT22;28407;51.830;5.684;2023-03-16T08:57:43;7.50;74.70
42755;DHT22;28407;51.830;5.684;2023-03-16T08:59:45;7.50;74.70
42755;DHT22;28407;51.830;5.684;2023-03-16T09:01:45;7.50;74.60
42755;DHT22;28407;51.830;5.684;2023-03-16T09:03:46;7.50;74.60
42755;DHT22;28407;51.830;5.684;2023-03-16T09:05:46;7.50;74.60
42755;DHT22;28407;51.830;5.684;2023-03-16T09:07:48;7.50;74.60
42755;DHT22;28407;51.830;5.684;2023-03-16T09:09:49;7.60;74.70
42755;DHT22;28407;51.830;5.684;2023-03-16T09:11:50;7.60;74.60
42755;DHT22;28407;51.830;5.684;2023-03-16T09:13:51;7.60;74.60
42755;DHT22;28407;51.830;5.684;2023-03-16T09:15:52;7.70;74.60
42755;DHT22;28407;51.830;5.684;2023-03-16T09:17:53;7.70;74.50
42755;DHT22;28407;51.830;5.684;2023-03-16T09:19:55;7.70;74.50
42755;DHT22;28407;51.830;5.684;2023-03-16T09:21:56;7.70;74.40
42755;DHT22;28407;51.830;5.684;2023-03-16T09:23:57;7.70;74.40
42755;DHT22;28407;51.830;5.684;2023-03-16T09:25:59;7.70;74.30
42755;DHT22;28407;51.830;5.684;2023-03-16T09:28:00;7.70;74.40
42755;DHT22;28407;51.830;5.684;2023-03-16T09:30:03;7.80;74.40
42755;DHT22;28407;51.830;5.684;2023-03-16T09:32:04;7.80;74.40
42755;DHT22;28407;51.830;5.684;2023-03-16T09:34:05;7.80;74.40
42755;DHT22;28407;51.830;5.684;2023-03-16T09:36:06;7.80;74.40
42755;DHT22;28407;51.830;5.684;2023-03-16T09:38:06;7.80;74.30
42755;DHT22;28407;51.830;5.684;2023-03-16T09:40:19;7.90;74.30
42755;DHT22;28407;51.830;5.684;2023-03-16T09:42:36;7.90;74.20
42755;DHT22;28407;51.830;5.684;2023-03-16T09:44:58;8.00;74.20
42755;DHT22;28407;51.830;5.684;2023-03-16T09:47:04;8.00;74.10
42755;DHT22;28407;51.830;5.684;2023-03-16T09:49:07;8.10;74.00
42755;DHT22;28407;51.830;5.684;2023-03-16T09:51:44;8.10;73.90
42755;DHT22;28407;51.830;5.684;2023-03-16T09:53:49;8.10;73.90
42755;DHT22;28407;51.830;5.684;2023-03-16T09:55:56;8.10;73.80
42755;DHT22;28407;51.830;5.684;2023-03-16T09:57:59;8.20;73.70
42755;DHT22;28407;51.830;5.684;2023-03-16T10:00:21;8.20;73.60
42755;DHT22;28407;51.830;5.684;2023-03-16T10:02:43;8.30;73.60
42755;DHT22;28407;51.830;5.684;2023-03-16T10:05:27;8.30;73.50
42755;DHT22;28407;51.830;5.684;2023-03-16T10:15:49;8.60;73.10
42755;DHT22;28407;51.830;5.684;2023-03-16T10:18:05;8.70;73.00
42755;DHT22;28407;51.830;5.684;2023-03-16T10:20:15;8.70;72.90
42755;DHT22;28407;51.830;5.684;2023-03-16T10:22:25;8.80;72.90
42755;DHT22;28407;51.830;5.684;2023-03-16T10:26:53;8.90;72.60
42755;DHT22;28407;51.830;5.684;2023-03-16T10:28:59;9.00;72.50
42755;DHT22;28407;51.830;5.684;2023-03-16T10:31:00;9.00;72.50
42755;DHT22;28407;51.830;5.684;2023-03-16T10:33:24;9.10;72.50
42755;DHT22;28407;51.830;5.684;2023-03-16T10:35:47;9.10;72.40
42755;DHT22;28407;51.830;5.684;2023-03-16T10:37:49;9.20;72.10
42755;DHT22;28407;51.830;5.684;2023-03-16T10:39:51;9.20;72.00
42755;DHT22;28407;51.830;5.684;2023-03-16T10:41:55;9.30;71.90
42755;DHT22;28407;51.830;5.684;2023-03-16T10:46:10;9.50;71.80
42755;DHT22;28407;51.830;5.684;2023-03-16T10:48:17;9.50;71.60
42755;DHT22;28407;51.830;5.684;2023-03-16T10:50:24;9.60;71.50
42755;DHT22;28407;51.830;5.684;2023-03-16T10:54:37;9.80;71.30
42755;DHT22;28407;51.830;5.684;2023-03-16T10:56:39;9.80;71.00
42755;DHT22;28407;51.830;5.684;2023-03-16T10:58:41;9.90;71.00
42755;DHT22;28407;51.830;5.684;2023-03-16T11:00:45;10.00;70.70
42755;DHT22;28407;51.830;5.684;2023-03-16T11:02:47;10.10;70.60
42755;DHT22;28407;51.830;5.684;2023-03-16T11:04:48;10.10;70.70
42755;DHT22;28407;51.830;5.684;2023-03-16T11:06:56;10.10;70.30
42755;DHT22;28407;51.830;5.684;2023-03-16T11:09:16;10.10;70.30
42755;DHT22;28407;51.830;5.684;2023-03-16T11:11:30;10.20;70.30
42755;DHT22;28407;51.830;5.684;2023-03-16T11:13:35;10.20;70.10
42755;DHT22;28407;51.830;5.684;2023-03-16T11:15:44;10.30;69.70
42755;DHT22;28407;51.830;5.684;2023-03-16T11:17:50;10.40;69.60
42755;DHT22;28407;51.830;5.684;2023-03-16T11:19:59;10.40;69.40
42755;DHT22;28407;51.830;5.684;2023-03-16T11:22:26;10.40;69.40
42755;DHT22;28407;51.830;5.684;2023-03-16T11:24:35;10.50;69.40
42755;DHT22;28407;51.830;5.684;2023-03-16T11:26:39;10.50;69.40
42755;DHT22;28407;51.830;5.684;2023-03-16T11:28:49;10.50;69.20
42755;DHT22;28407;51.830;5.684;2023-03-16T11:31:24;10.50;69.20
42755;DHT22;28407;51.830;5.684;2023-03-16T11:33:28;10.60;69.10
42755;DHT22;28407;51.830;5.684;2023-03-16T11:38:17;10.60;69.00
42755;DHT22;28407;51.830;5.684;2023-03-16T11:42:37;10.60;68.70
42755;DHT22;28407;51.830;5.684;2023-03-16T11:44:48;10.70;68.70
42755;DHT22;28407;51.830;5.684;2023-03-16T11:47:19;10.70;68.60
42755;DHT22;28407;51.830;5.684;2023-03-16T11:51:51;10.70;68.40
42755;DHT22;28407;51.830;5.684;2023-03-16T12:00:56;10.90;68.20
42755;DHT22;28407;51.830;5.684;2023-03-16T12:10:27;11.00;67.90
42755;DHT22;28407;51.830;5.684;2023-03-16T12:14:57;11.10;67.60
42755;DHT22;28407;51.830;5.684;2023-03-16T12:17:24;11.20;67.40
42755;DHT22;28407;51.830;5.684;2023-03-16T12:19:36;11.30;67.30
42755;DHT22;28407;51.830;5.684;2023-03-16T12:21:42;11.30;67.10
42755;DHT22;28407;51.830;5.684;2023-03-16T12:24:04;11.40;67.00
42755;DHT22;28407;51.830;5.684;2023-03-16T12:26:06;11.50;66.80
42755;DHT22;28407;51.830;5.684;2023-03-16T12:28:22;11.50;66.70
42755;DHT22;28407;51.830;5.684;2023-03-16T12:30:33;11.60;66.60
42755;DHT22;28407;51.830;5.684;2023-03-16T12:32:49;11.70;66.40
42755;DHT22;28407;51.830;5.684;2023-03-16T12:35:18;11.80;66.30
42755;DHT22;28407;51.830;5.684;2023-03-16T12:37:49;11.90;66.10
42755;DHT22;28407;51.830;5.684;2023-03-16T12:40:18;12.00;65.90
42755;DHT22;28407;51.830;5.684;2023-03-16T12:46:56;12.40;65.30
42755;DHT22;28407;51.830;5.684;2023-03-16T12:49:02;12.40;65.10
42755;DHT22;28407;51.830;5.684;2023-03-16T12:51:04;12.50;64.60
42755;DHT22;28407;51.830;5.684;2023-03-16T12:53:05;12.60;64.20
42755;DHT22;28407;51.830;5.684;2023-03-16T12:55:38;12.70;64.20
42755;DHT22;28407;51.830;5.684;2023-03-16T12:57:39;12.70;63.80
42755;DHT22;28407;51.830;5.684;2023-03-16T12:59:46;12.80;63.50
42755;DHT22;28407;51.830;5.684;2023-03-16T13:01:52;12.80;63.30
42755;DHT22;28407;51.830;5.684;2023-03-16T13:04:11;12.90;62.90
42755;DHT22;28407;51.830;5.684;2023-03-16T13:06:34;13.00;62.50
42755;DHT22;28407;51.830;5.684;2023-03-16T13:08:49;13.00;62.20
42755;DHT22;28407;51.830;5.684;2023-03-16T13:11:03;13.10;62.10
42755;DHT22;28407;51.830;5.684;2023-03-16T13:13:15;13.20;61.70
42755;DHT22;28407;51.830;5.684;2023-03-16T13:17:32;13.40;61.30
42755;DHT22;28407;51.830;5.684;2023-03-16T13:19:33;13.40;61.10
42755;DHT22;28407;51.830;5.684;2023-03-16T13:21:39;13.50;60.90
42755;DHT22;28407;51.830;5.684;2023-03-16T13:24:13;13.60;60.70
42755;DHT22;28407;51.830;5.684;2023-03-16T13:26:37;13.60;60.50
42755;DHT22;28407;51.830;5.684;2023-03-16T13:28:38;13.70;60.40
42755;DHT22;28407;51.830;5.684;2023-03-16T13:30:45;13.70;60.40
42755;DHT22;28407;51.830;5.684;2023-03-16T13:32:51;13.80;60.00
42755;DHT22;28407;51.830;5.684;2023-03-16T13:34:56;13.80;59.90
42755;DHT22;28407;51.830;5.684;2023-03-16T13:36:59;13.90;59.70
42755;DHT22;28407;51.830;5.684;2023-03-16T13:39:14;13.90;59.80
42755;DHT22;28407;51.830;5.684;2023-03-16T13:41:15;14.00;59.80
42755;DHT22;28407;51.830;5.684;2023-03-16T13:43:20;14.00;59.60
42755;DHT22;28407;51.830;5.684;2023-03-16T13:45:26;14.00;59.50
42755;DHT22;28407;51.830;5.684;2023-03-16T13:47:27;14.10;59.50
42755;DHT22;28407;51.830;5.684;2023-03-16T13:49:28;14.10;59.20
42755;DHT22;28407;51.830;5.684;2023-03-16T13:51:33;14.10;59.30
42755;DHT22;28407;51.830;5.684;2023-03-16T13:53:34;14.20;59.20
42755;DHT22;28407;51.830;5.684;2023-03-16T13:55:36;14.20;59.30
42755;DHT22;28407;51.830;5.684;2023-03-16T13:57:39;14.30;58.90
42755;DHT22;28407;51.830;5.684;2023-03-16T13:59:41;14.40;58.50
42755;DHT22;28407;51.830;5.684;2023-03-16T14:01:44;14.40;58.20
42755;DHT22;28407;51.830;5.684;2023-03-16T14:03:46;14.40;57.90
42755;DHT22;28407;51.830;5.684;2023-03-16T14:05:47;14.40;57.70
42755;DHT22;28407;51.830;5.684;2023-03-16T14:07:50;14.40;57.60
42755;DHT22;28407;51.830;5.684;2023-03-16T14:09:51;14.40;57.40
42755;DHT22;28407;51.830;5.684;2023-03-16T14:11:53;14.40;57.00